Glendive, MT

4:10 AM MST on February 07, 2016 (GMT -0700)
heights | | Change Station
CLOSE
Current Station
Personal Weather Station
Location: Glendive, MT
Elevation: 2077 ft
Nearby Weather Stations
Active Advisory: High Wind Warning

Elev 2077 ft 47.12 °N, 104.71 °W | Updated 4 minutes ago

Clear
Clear
34.0 °F
Feels Like 24 °F
N
16.1
Wind Variable Wind from NNW

Today
High -- | Low -- °F
--% Chance of Precip.
Yesterday
High -- | Low -- °F
Precip. -- in
Pressure 30.00 in
Visibility 10.0 miles
Clouds Clear
Windchill 24 °F
Dew Point 19 °F
Humidity 54%
Rainfall 0.00 in
Snow Depth Not available.
7:16 AM 5:10 PM
Waning Crescent, 2% visible
METAR KGDV 071055Z AUTO 28027G38KT 10SM CLR M01/M07 A3000 RMK AO1
Pressure 30.00 in
Visibility 10.0 miles
Clouds Clear
Windchill 24 °F
Dew Point 19 °F
Humidity 54%
Rainfall 0.00 in
Snow Depth Not available.
7:16 AM 5:10 PM
Waning Crescent, 2% visible
METAR KGDV 071055Z AUTO 28027G38KT 10SM CLR M01/M07 A3000 RMK AO1

10-Day Weather Forecast

Almanac

Astronomy

Feb. 07, 2016 Rise Set
Actual Time
Civil Twilight
Nautical Twilight
Astronomical Twilight
Moon
Length of Visible Light
Length of Day
Tomorrow will be .
, % of the Moon is Illuminated

Today's Extremes

State Highs State Lows

Community

WunderPhotos

Upload Photos

1,891,170 photos uploaded!

WunderBlog® & News

Nearby

Air Quality

  Air Quality AQ Index Pollutant
Not available.

Snow Depth

Station Depth Elevation

Earthquake Activity

City Distance Mag. Time & Date
Minimum magnitude displayed is 2.5.

Coastal Water Temperatures

Place Temperature

Stations

Nearby Weather Stations

Station Location Temp. Windchill Dew Point Humidity Wind Precip. Elev Updated Type
                   

Watches & Warnings

High Wind Warning
Issued: 3:14 AM MST Feb. 7, 2016 – National Weather Service

... High Wind Warning remains in effect until 5 PM MST this
afternoon...

* winds... northwest 30 to 40 mph with gusts up to 60 mph.

* Timing... this morning through late afternoon.

* Impacts... the strong winds may make travel difficult
especially for high profile vehicles on north-south oriented
roads.

Precautionary/preparedness actions...

A High Wind Warning means a hazardous high wind event is expected
or occurring. Sustained wind speeds of at least 40 mph or gusts
of 58 mph or more can lead to property damage.